Time;durP1;ratioP1;P1;durP2;ratioP2;P2;SDS_P1;SDS_P2;PMS_P1;PMS_P2;Temp;Humidity;BMP_temperature;BMP_pressure;BME280_temperature;BME280_humidity;BME280_pressure;Samples;Min_cycle;Max_cycle;Signal;HPM_P1;HPM_P2
2021/07/28 00:00:34;;;;;;;3.42;2.47;;;;;;;;;;4191784;34;20529;-67
2021/07/28 00:03:00;;;;;;;8.05;2.75;;;;;;;;;;4191878;34;20525;-67
2021/07/28 00:05:26;;;;;;;4.10;2.45;;;;;;;;;;4192236;34;20502;-68
2021/07/28 00:07:52;;;;;;;7.57;2.72;;;;;;;;;;4179083;34;20107;-65
2021/07/28 00:10:18;;;;;;;3.28;2.60;;;;;;;;;;4191657;34;20145;-67
2021/07/28 00:12:44;;;;;;;5.20;2.70;;;;;;;;;;4167483;34;20210;-67
2021/07/28 00:15:11;;;;;;;3.60;2.70;;;;;;;;;;4178881;34;20537;-67
2021/07/28 00:17:41;;;;;;;3.50;2.60;;;;;;;;;;4179257;34;20102;-68
2021/07/28 00:20:18;;;;;;;6.12;2.55;;;;;;;;;;4179267;34;20560;-68
2021/07/28 00:25:28;;;;;;;6.20;3.10;;;;;;;;;;4191641;34;20254;-67
2021/07/28 00:27:54;;;;;;;2.40;2.20;;;;;;;;;;4191560;34;20141;-67
2021/07/28 00:30:20;;;;;;;5.90;2.75;;;;;;;;;;4167597;34;20545;-66
2021/07/28 00:32:46;;;;;;;8.48;2.70;;;;;;;;;;4167568;34;20121;-66
2021/07/28 00:35:12;;;;;;;2.83;2.40;;;;;;;;;;4191481;34;20128;-67
2021/07/28 00:37:39;;;;;;;4.30;2.67;;;;;;;;;;4191725;34;20113;-68
2021/07/28 00:40:06;;;;;;;3.30;2.58;;;;;;;;;;4178979;34;20144;-65
2021/07/28 00:42:32;;;;;;;5.53;2.15;;;;;;;;;;4191505;34;20102;-66
2021/07/28 00:44:58;;;;;;;5.03;2.47;;;;;;;;;;4191683;34;20133;-65
2021/07/28 00:47:24;;;;;;;3.00;2.20;;;;;;;;;;4191220;34;20113;-67
2021/07/28 00:49:52;;;;;;;2.78;2.28;;;;;;;;;;4178960;34;20122;-67
2021/07/28 00:52:18;;;;;;;6.72;2.83;;;;;;;;;;4178519;34;20584;-67
2021/07/28 00:54:44;;;;;;;8.70;2.42;;;;;;;;;;4178669;34;20204;-66
2021/07/28 00:57:10;;;;;;;6.22;2.72;;;;;;;;;;4178514;34;20130;-67
2021/07/28 00:59:36;;;;;;;8.23;3.20;;;;;;;;;;4167252;34;20124;-67
2021/07/28 01:02:01;;;;;;;6.10;3.22;;;;;;;;;;4178362;34;20209;-66
2021/07/28 01:04:27;;;;;;;4.90;3.30;;;;;;;;;;4191177;34;20114;-67
2021/07/28 01:06:53;;;;;;;6.80;2.70;;;;;;;;;;4191382;34;20198;-67
2021/07/28 01:09:19;;;;;;;5.57;3.17;;;;;;;;;;4166855;34;20136;-67
2021/07/28 01:11:45;;;;;;;6.90;3.08;;;;;;;;;;4190830;34;20502;-67
2021/07/28 01:14:11;;;;;;;8.82;3.00;;;;;;;;;;4191344;34;20124;-67
2021/07/28 01:16:38;;;;;;;10.88;3.30;;;;;;;;;;4191152;34;20126;-65
2021/07/28 01:19:11;;;;;;;11.98;3.17;;;;;;;;;;4167277;34;20441;-67
2021/07/28 01:21:37;;;;;;;11.35;3.20;;;;;;;;;;4191124;34;20134;-66
2021/07/28 01:24:05;;;;;;;8.93;2.42;;;;;;;;;;4178559;34;20133;-66
2021/07/28 01:26:31;;;;;;;10.13;2.95;;;;;;;;;;4191184;34;20222;-67
2021/07/28 01:28:57;;;;;;;12.73;3.28;;;;;;;;;;4178595;34;20136;-66
2021/07/28 01:31:23;;;;;;;3.53;2.65;;;;;;;;;;4191310;34;20106;-68
2021/07/28 01:33:49;;;;;;;7.90;3.60;;;;;;;;;;4191044;34;20204;-66
2021/07/28 01:36:19;;;;;;;9.82;3.22;;;;;;;;;;4178447;34;20307;-66
2021/07/28 01:38:50;;;;;;;5.87;3.45;;;;;;;;;;4167592;34;20094;-66
2021/07/28 01:41:16;;;;;;;5.55;2.90;;;;;;;;;;4178158;34;20106;-67
2021/07/28 01:43:42;;;;;;;9.43;3.70;;;;;;;;;;4178246;34;20455;-66
2021/07/28 01:46:08;;;;;;;13.68;3.92;;;;;;;;;;4190900;34;20105;-66
2021/07/28 01:48:34;;;;;;;10.18;3.70;;;;;;;;;;4175901;34;20514;-67
2021/07/28 01:51:00;;;;;;;9.32;3.42;;;;;;;;;;4187204;34;20561;-67
2021/07/28 01:53:26;;;;;;;13.82;3.45;;;;;;;;;;4175671;34;20118;-66
2021/07/28 01:55:56;;;;;;;9.13;3.28;;;;;;;;;;4176985;34;20222;-68
2021/07/28 01:58:22;;;;;;;5.30;3.12;;;;;;;;;;4175709;34;20114;-68
2021/07/28 02:00:48;;;;;;;9.63;3.12;;;;;;;;;;4177107;34;20169;-67
2021/07/28 02:03:14;;;;;;;10.90;3.15;;;;;;;;;;4175786;34;20146;-67
2021/07/28 02:05:40;;;;;;;11.48;3.22;;;;;;;;;;4164492;34;20148;-66
2021/07/28 02:08:08;;;;;;;10.57;3.08;;;;;;;;;;4175648;34;20113;-66
2021/07/28 02:10:35;;;;;;;14.80;3.53;;;;;;;;;;4175833;34;20129;-68
2021/07/28 02:13:02;;;;;;;11.18;3.10;;;;;;;;;;4175576;34;20119;-67
2021/07/28 02:15:28;;;;;;;5.95;3.17;;;;;;;;;;4175482;34;20102;-66
2021/07/28 02:17:55;;;;;;;6.87;4.18;;;;;;;;;;4175265;34;20148;-67
2021/07/28 02:20:21;;;;;;;12.98;6.28;;;;;;;;;;4152852;34;20133;-66
2021/07/28 02:22:47;;;;;;;6.62;4.03;;;;;;;;;;4178845;34;20114;-67
2021/07/28 02:25:14;;;;;;;4.43;3.05;;;;;;;;;;4177462;34;20162;-66
2021/07/28 02:27:40;;;;;;;5.60;2.85;;;;;;;;;;4177337;34;20218;-69
2021/07/28 02:30:06;;;;;;;6.20;3.28;;;;;;;;;;4177519;34;20126;-68
2021/07/28 02:32:33;;;;;;;3.75;2.65;;;;;;;;;;4166421;34;20142;-69
2021/07/28 02:34:59;;;;;;;6.95;3.08;;;;;;;;;;4177300;34;20461;-69
2021/07/28 02:37:25;;;;;;;6.43;2.90;;;;;;;;;;4177412;34;20488;-68
2021/07/28 02:39:51;;;;;;;3.53;2.30;;;;;;;;;;4177246;34;20122;-67
2021/07/28 02:42:17;;;;;;;4.22;2.85;;;;;;;;;;4177425;34;20126;-68
2021/07/28 02:45:21;;;;;;;4.05;2.45;;;;;;;;;;4178467;34;20115;-68
2021/07/28 02:48:11;;;;;;;5.70;3.45;;;;;;;;;;4187909;34;20469;-67
2021/07/28 02:50:37;;;;;;;11.90;3.40;;;;;;;;;;4192178;34;20213;-67
2021/07/28 02:53:03;;;;;;;6.07;3.35;;;;;;;;;;4167908;34;20115;-67
2021/07/28 02:55:29;;;;;;;7.90;3.03;;;;;;;;;;4192035;34;20148;-67
2021/07/28 02:57:55;;;;;;;6.95;2.92;;;;;;;;;;4179452;34;20102;-67
2021/07/28 03:00:21;;;;;;;8.35;2.97;;;;;;;;;;4167142;34;20114;-67
2021/07/28 03:02:47;;;;;;;6.20;2.67;;;;;;;;;;4190903;34;20113;-68
2021/07/28 03:05:14;;;;;;;5.72;3.22;;;;;;;;;;4167930;34;20141;-69
2021/07/28 03:07:40;;;;;;;6.35;3.03;;;;;;;;;;4191669;34;20173;-67
2021/07/28 03:10:06;;;;;;;10.48;3.45;;;;;;;;;;4191025;34;20110;-70
2021/07/28 03:12:32;;;;;;;5.55;2.80;;;;;;;;;;4191235;34;20198;-71
2021/07/28 03:14:58;;;;;;;4.93;2.87;;;;;;;;;;4192198;34;20122;-68
2021/07/28 03:17:24;;;;;;;8.77;3.03;;;;;;;;;;4192170;34;20148;-70
2021/07/28 03:23:20;;;;;;;5.03;2.45;;;;;;;;;;4179872;34;20178;-68
2021/07/28 03:25:46;;;;;;;8.23;2.65;;;;;;;;;;4179056;34;20141;-68
2021/07/28 03:28:12;;;;;;;4.28;2.58;;;;;;;;;;4179188;34;20187;-66
2021/07/28 03:30:37;;;;;;;14.20;3.10;;;;;;;;;;4179068;34;20138;-69
2021/07/28 03:33:04;;;;;;;4.18;2.75;;;;;;;;;;4178708;34;20106;-69
2021/07/28 03:35:29;;;;;;;9.77;2.83;;;;;;;;;;4191882;34;20134;-69
2021/07/28 03:37:55;;;;;;;5.25;2.50;;;;;;;;;;4179327;34;20122;-68
2021/07/28 03:40:21;;;;;;;3.75;2.58;;;;;;;;;;4191701;34;20564;-70
2021/07/28 03:42:48;;;;;;;4.53;3.00;;;;;;;;;;4178931;34;20110;-70
2021/07/28 03:45:14;;;;;;;12.55;3.28;;;;;;;;;;4167871;34;20107;-68
2021/07/28 03:47:39;;;;;;;5.57;2.90;;;;;;;;;;4191527;34;20133;-68
2021/07/28 03:50:06;;;;;;;6.10;2.75;;;;;;;;;;4178981;34;20145;-68
2021/07/28 03:52:31;;;;;;;5.82;2.72;;;;;;;;;;4191716;34;20113;-68
2021/07/28 03:54:57;;;;;;;7.20;2.90;;;;;;;;;;4191673;34;20213;-70
2021/07/28 03:57:23;;;;;;;3.65;2.45;;;;;;;;;;4167630;34;20101;-70
2021/07/28 03:59:49;;;;;;;3.53;2.55;;;;;;;;;;4179173;34;20114;-69
2021/07/28 04:02:15;;;;;;;6.28;2.05;;;;;;;;;;4191548;34;20145;-70
2021/07/28 04:04:41;;;;;;;2.20;2.00;;;;;;;;;;4167827;34;20141;-69
2021/07/28 04:07:07;;;;;;;3.53;2.65;;;;;;;;;;4178807;34;20142;-69
2021/07/28 04:09:33;;;;;;;6.87;2.30;;;;;;;;;;4178899;34;20137;-70
2021/07/28 04:11:59;;;;;;;3.35;2.37;;;;;;;;;;4178782;34;20195;-71
2021/07/28 04:14:24;;;;;;;9.18;2.72;;;;;;;;;;4191683;34;20183;-68
2021/07/28 04:16:50;;;;;;;5.00;2.37;;;;;;;;;;4178856;34;20566;-68
2021/07/28 04:19:16;;;;;;;3.75;1.90;;;;;;;;;;4191617;34;20123;-68
2021/07/28 04:21:42;;;;;;;5.90;2.12;;;;;;;;;;4167541;34;20122;-70
2021/07/28 04:24:08;;;;;;;3.72;2.35;;;;;;;;;;4167551;34;20559;-72
2021/07/28 04:26:39;;;;;;;5.62;2.47;;;;;;;;;;4178858;34;20616;-68
2021/07/28 04:29:06;;;;;;;3.70;1.90;;;;;;;;;;4179354;34;20155;-70
2021/07/28 04:31:32;;;;;;;2.45;1.95;;;;;;;;;;4191425;34;20189;-68
2021/07/28 04:33:58;;;;;;;2.12;1.75;;;;;;;;;;4191634;34;20141;-70
2021/07/28 04:36:24;;;;;;;2.17;1.98;;;;;;;;;;4191446;34;20209;-70
2021/07/28 04:38:50;;;;;;;3.47;1.95;;;;;;;;;;4191520;34;20122;-68
2021/07/28 04:41:15;;;;;;;3.15;1.67;;;;;;;;;;4191365;34;20602;-70
2021/07/28 04:43:41;;;;;;;5.25;2.22;;;;;;;;;;4191414;34;20134;-70
2021/07/28 04:46:07;;;;;;;7.37;1.75;;;;;;;;;;4190686;34;20125;-68
2021/07/28 04:48:33;;;;;;;3.47;2.10;;;;;;;;;;4178867;34;20122;-68
2021/07/28 04:50:59;;;;;;;7.00;1.87;;;;;;;;;;4178799;34;20202;-71
2021/07/28 04:53:28;;;;;;;4.45;1.95;;;;;;;;;;4178570;34;20462;-69
2021/07/28 04:55:55;;;;;;;7.20;2.00;;;;;;;;;;4178716;34;20144;-69
2021/07/28 04:58:21;;;;;;;4.97;1.75;;;;;;;;;;4178786;34;20121;-69
2021/07/28 05:00:47;;;;;;;2.65;1.60;;;;;;;;;;4191087;34;20210;-69
2021/07/28 05:03:13;;;;;;;2.55;2.05;;;;;;;;;;4191389;34;20105;-67
2021/07/28 05:05:40;;;;;;;5.90;1.92;;;;;;;;;;4191251;34;20256;-71
2021/07/28 05:08:07;;;;;;;10.07;1.98;;;;;;;;;;4178463;34;20202;-68
2021/07/28 05:10:32;;;;;;;2.45;1.80;;;;;;;;;;4178397;34;20134;-70
2021/07/28 05:12:58;;;;;;;4.28;2.60;;;;;;;;;;4178235;34;20222;-68
2021/07/28 05:15:24;;;;;;;3.03;1.83;;;;;;;;;;4167139;34;20117;-69
2021/07/28 05:17:50;;;;;;;3.67;2.00;;;;;;;;;;4190908;34;20109;-69
2021/07/28 05:20:19;;;;;;;4.28;1.90;;;;;;;;;;4178120;34;20144;-69
2021/07/28 05:22:45;;;;;;;2.50;1.90;;;;;;;;;;4191054;34;20118;-68
2021/07/28 05:25:12;;;;;;;6.22;2.10;;;;;;;;;;4167026;34;20120;-68
2021/07/28 05:27:38;;;;;;;3.53;1.98;;;;;;;;;;4178465;34;20122;-69
2021/07/28 05:30:05;;;;;;;2.60;1.90;;;;;;;;;;4191008;34;20133;-71
2021/07/28 05:32:31;;;;;;;4.55;2.10;;;;;;;;;;4191018;34;20128;-68
2021/07/28 05:34:57;;;;;;;2.35;1.90;;;;;;;;;;4191030;34;20532;-70
2021/07/28 05:37:24;;;;;;;9.57;1.90;;;;;;;;;;4178056;34;20528;-68
2021/07/28 05:39:49;;;;;;;4.93;2.05;;;;;;;;;;4178266;34;20121;-68
2021/07/28 05:42:15;;;;;;;4.22;2.05;;;;;;;;;;4190635;34;20118;-70
2021/07/28 05:44:41;;;;;;;6.57;1.87;;;;;;;;;;4190837;34;20125;-71
2021/07/28 05:47:07;;;;;;;2.95;1.95;;;;;;;;;;4190668;34;20124;-70
2021/07/28 05:49:33;;;;;;;9.35;2.75;;;;;;;;;;4190890;34;20245;-68
2021/07/28 05:51:59;;;;;;;3.50;2.28;;;;;;;;;;4190992;34;20101;-71
2021/07/28 05:54:25;;;;;;;3.12;2.17;;;;;;;;;;4177896;34;20118;-69
2021/07/28 05:56:51;;;;;;;2.65;1.98;;;;;;;;;;4177612;34;20102;-69
2021/07/28 05:59:17;;;;;;;4.15;1.92;;;;;;;;;;4178477;34;20111;-71
2021/07/28 06:01:43;;;;;;;2.33;1.90;;;;;;;;;;4177827;34;20098;-68
2021/07/28 06:04:09;;;;;;;4.50;2.08;;;;;;;;;;4190744;34;20137;-66
2021/07/28 06:06:35;;;;;;;3.10;2.60;;;;;;;;;;4193799;34;20130;-67
2021/07/28 06:09:01;;;;;;;3.70;2.10;;;;;;;;;;4177934;34;20126;-67
2021/07/28 06:11:27;;;;;;;2.78;2.25;;;;;;;;;;4166782;34;20227;-67
2021/07/28 06:13:53;;;;;;;3.72;2.22;;;;;;;;;;4190750;34;20243;-68
2021/07/28 06:16:19;;;;;;;3.47;2.40;;;;;;;;;;4166852;34;20491;-69
2021/07/28 06:18:45;;;;;;;10.27;2.53;;;;;;;;;;4166557;34;20616;-68
2021/07/28 06:21:11;;;;;;;2.30;1.80;;;;;;;;;;4177666;34;20110;-70
2021/07/28 06:23:37;;;;;;;3.25;2.00;;;;;;;;;;4190670;34;20126;-71
2021/07/28 06:26:03;;;;;;;2.50;2.20;;;;;;;;;;4177882;34;20214;-70
2021/07/28 06:28:29;;;;;;;2.25;1.70;;;;;;;;;;4177819;34;20137;-70
2021/07/28 06:30:55;;;;;;;1.73;1.62;;;;;;;;;;4178014;34;20552;-68
2021/07/28 06:33:22;;;;;;;1.65;1.55;;;;;;;;;;4177446;34;20109;-68
2021/07/28 06:35:48;;;;;;;1.90;1.45;;;;;;;;;;4190374;34;20094;-70
2021/07/28 06:38:15;;;;;;;4.90;2.25;;;;;;;;;;4177721;34;20214;-70
2021/07/28 06:40:41;;;;;;;4.28;2.17;;;;;;;;;;4166447;34;20474;-70
2021/07/28 06:43:07;;;;;;;4.53;1.90;;;;;;;;;;4177583;34;20290;-71
2021/07/28 06:45:33;;;;;;;2.25;2.00;;;;;;;;;;4177564;34;20546;-71
2021/07/28 06:47:59;;;;;;;6.30;2.28;;;;;;;;;;4177215;34;20229;-68
2021/07/28 06:50:25;;;;;;;1.67;1.58;;;;;;;;;;4177448;34;20141;-70
2021/07/28 06:52:51;;;;;;;2.10;1.90;;;;;;;;;;4190166;34;20418;-70
2021/07/28 06:55:17;;;;;;;2.60;2.05;;;;;;;;;;4190231;34;20137;-70
2021/07/28 06:57:43;;;;;;;3.10;2.42;;;;;;;;;;4190093;34;20435;-70
2021/07/28 07:00:09;;;;;;;2.25;1.90;;;;;;;;;;4190239;34;20131;-68
2021/07/28 07:02:36;;;;;;;2.40;1.95;;;;;;;;;;4189993;34;20177;-70
2021/07/28 07:05:05;;;;;;;2.65;1.98;;;;;;;;;;4166126;34;20106;-70
2021/07/28 07:07:31;;;;;;;5.60;2.40;;;;;;;;;;4190067;34;20124;-70
2021/07/28 07:09:57;;;;;;;3.05;2.03;;;;;;;;;;4168221;34;20134;-68
2021/07/28 07:12:23;;;;;;;2.65;2.10;;;;;;;;;;4179440;34;20182;-70
2021/07/28 07:14:49;;;;;;;2.62;2.10;;;;;;;;;;4179417;34;20466;-70
2021/07/28 07:17:16;;;;;;;2.85;2.25;;;;;;;;;;4191962;34;20194;-70
2021/07/28 07:19:42;;;;;;;3.60;2.30;;;;;;;;;;4179268;34;20121;-71
2021/07/28 07:22:08;;;;;;;2.20;2.00;;;;;;;;;;4167595;34;20113;-70
2021/07/28 07:24:34;;;;;;;2.17;1.98;;;;;;;;;;4179316;34;20548;-70
2021/07/28 07:27:00;;;;;;;3.12;1.80;;;;;;;;;;4179497;34;20133;-68
2021/07/28 07:29:26;;;;;;;3.22;2.12;;;;;;;;;;4167894;34;20234;-69
2021/07/28 07:31:52;;;;;;;2.58;2.10;;;;;;;;;;4191748;34;20117;-68
2021/07/28 07:34:18;;;;;;;1.85;1.73;;;;;;;;;;4191941;34;20148;-67
2021/07/28 07:36:44;;;;;;;3.40;2.17;;;;;;;;;;4191904;34;20227;-70
2021/07/28 07:39:09;;;;;;;3.25;2.00;;;;;;;;;;4179249;34;20218;-69
2021/07/28 07:41:35;;;;;;;3.45;2.05;;;;;;;;;;4179104;34;20125;-67
2021/07/28 07:44:01;;;;;;;3.42;1.92;;;;;;;;;;4191972;34;20237;-69
2021/07/28 07:46:27;;;;;;;3.33;2.00;;;;;;;;;;4192159;34;20109;-70
2021/07/28 07:48:54;;;;;;;2.55;2.20;;;;;;;;;;4167604;34;20122;-69
2021/07/28 07:51:23;;;;;;;2.58;2.10;;;;;;;;;;4167839;34;20137;-68
2021/07/28 07:53:49;;;;;;;4.20;2.20;;;;;;;;;;4191789;34;20213;-69
2021/07/28 07:56:15;;;;;;;3.22;1.90;;;;;;;;;;4191997;34;20450;-67
2021/07/28 07:58:41;;;;;;;2.30;2.00;;;;;;;;;;4168072;34;20130;-68
2021/07/28 08:01:11;;;;;;;4.00;2.15;;;;;;;;;;4167485;34;20126;-70
2021/07/28 08:03:38;;;;;;;3.08;2.40;;;;;;;;;;4179055;34;20526;-67
2021/07/28 08:06:04;;;;;;;4.35;1.98;;;;;;;;;;4167520;34;20137;-68
2021/07/28 08:08:30;;;;;;;2.08;1.75;;;;;;;;;;4178915;34;20126;-69
2021/07/28 08:10:56;;;;;;;1.65;1.55;;;;;;;;;;4191963;34;20333;-69
2021/07/28 08:13:22;;;;;;;3.42;2.30;;;;;;;;;;4191611;34;20209;-70
2021/07/28 08:15:48;;;;;;;3.50;2.22;;;;;;;;;;4178931;34;20208;-67
2021/07/28 08:18:14;;;;;;;1.87;1.60;;;;;;;;;;4178883;34;20132;-70
2021/07/28 08:20:40;;;;;;;3.30;2.62;;;;;;;;;;4191470;34;20247;-68
2021/07/28 08:23:05;;;;;;;2.20;1.87;;;;;;;;;;4178544;34;20110;-68
2021/07/28 08:25:31;;;;;;;2.95;2.30;;;;;;;;;;4191596;34;20130;-68
2021/07/28 08:27:57;;;;;;;3.20;2.20;;;;;;;;;;4178689;34;20129;-68
2021/07/28 08:30:23;;;;;;;2.80;2.03;;;;;;;;;;4178861;34;20121;-70
2021/07/28 08:32:49;;;;;;;5.43;2.00;;;;;;;;;;4178637;34;20192;-68
2021/07/28 08:35:15;;;;;;;2.40;2.00;;;;;;;;;;4178505;34;20138;-70
2021/07/28 08:37:41;;;;;;;2.92;1.95;;;;;;;;;;4178308;34;20090;-70
2021/07/28 08:40:15;;;;;;;4.60;2.60;;;;;;;;;;4167213;34;20229;-70
2021/07/28 08:42:45;;;;;;;2.80;2.08;;;;;;;;;;4191370;34;20542;-70
2021/07/28 08:45:12;;;;;;;4.35;2.40;;;;;;;;;;4179139;34;20185;-68
2021/07/28 08:47:38;;;;;;;2.85;2.22;;;;;;;;;;4178575;34;20190;-67
2021/07/28 08:50:08;;;;;;;4.82;1.90;;;;;;;;;;4179041;34;20125;-68
2021/07/28 08:52:34;;;;;;;2.33;1.95;;;;;;;;;;4191112;34;20130;-68
2021/07/28 08:55:01;;;;;;;6.72;2.50;;;;;;;;;;4191328;34;20441;-68
2021/07/28 08:57:31;;;;;;;3.05;1.98;;;;;;;;;;4178507;34;20544;-67
2021/07/28 08:59:57;;;;;;;2.60;2.10;;;;;;;;;;4178666;34;20106;-67
2021/07/28 09:02:24;;;;;;;2.12;1.80;;;;;;;;;;4178573;34;20114;-67
2021/07/28 09:04:50;;;;;;;2.97;2.45;;;;;;;;;;4178280;34;20171;-68
2021/07/28 09:07:16;;;;;;;2.25;2.05;;;;;;;;;;4178256;34;20455;-70
2021/07/28 09:09:51;;;;;;;2.60;2.00;;;;;;;;;;4178252;34;20118;-70
2021/07/28 09:12:17;;;;;;;5.32;3.55;;;;;;;;;;4178437;34;20437;-70
2021/07/28 09:14:55;;;;;;;2.95;2.12;;;;;;;;;;4167117;34;20133;-70
2021/07/28 09:17:24;;;;;;;6.18;2.50;;;;;;;;;;4167071;34;20133;-70
2021/07/28 09:19:50;;;;;;;1.52;1.42;;;;;;;;;;4190834;34;20102;-70
2021/07/28 09:22:20;;;;;;;3.37;2.40;;;;;;;;;;4178211;34;20105;-70
2021/07/28 09:25:06;;;;;;;2.78;2.30;;;;;;;;;;4178748;34;20204;-70
2021/07/28 09:27:52;;;;;;;8.57;2.78;;;;;;;;;;4181397;34;20086;-70
2021/07/28 09:30:29;;;;;;;4.62;2.80;;;;;;;;;;4178437;34;20505;-70
2021/07/28 09:33:05;;;;;;;3.08;2.20;;;;;;;;;;4179114;34;20132;-70
2021/07/28 09:35:46;;;;;;;2.90;2.30;;;;;;;;;;4190849;34;20519;-70
2021/07/28 09:38:35;;;;;;;4.97;2.70;;;;;;;;;;4190738;34;20443;-70
2021/07/28 09:41:21;;;;;;;4.43;2.97;;;;;;;;;;4186318;34;20133;-69
2021/07/28 09:44:00;;;;;;;5.32;2.62;;;;;;;;;;4190708;34;20110;-70
2021/07/28 09:46:39;;;;;;;4.97;2.45;;;;;;;;;;4155328;34;20474;-70
2021/07/28 09:49:06;;;;;;;4.03;2.03;;;;;;;;;;4178575;34;20519;-70
2021/07/28 09:51:36;;;;;;;4.78;2.53;;;;;;;;;;4190377;34;20490;-70
2021/07/28 09:54:06;;;;;;;3.20;2.17;;;;;;;;;;4178180;34;20112;-69
2021/07/28 09:56:50;;;;;;;2.92;2.40;;;;;;;;;;4190535;34;20125;-71
2021/07/28 09:59:17;;;;;;;4.07;2.42;;;;;;;;;;4167856;34;20130;-71
2021/07/28 10:01:44;;;;;;;2.55;1.90;;;;;;;;;;4166513;34;20444;-71
2021/07/28 10:04:11;;;;;;;8.10;3.05;;;;;;;;;;4189176;34;20527;-71
2021/07/28 10:06:39;;;;;;;4.93;1.83;;;;;;;;;;4166413;34;20170;-71
2021/07/28 10:09:10;;;;;;;3.95;2.28;;;;;;;;;;4178062;34;20224;-71
2021/07/28 10:11:38;;;;;;;4.72;2.30;;;;;;;;;;4177319;34;20129;-70
2021/07/28 10:14:04;;;;;;;3.28;2.12;;;;;;;;;;4190589;34;20199;-71
2021/07/28 10:16:31;;;;;;;3.50;2.33;;;;;;;;;;4177401;34;20564;-70
2021/07/28 10:18:58;;;;;;;3.05;2.40;;;;;;;;;;4177831;34;20103;-70
2021/07/28 10:21:24;;;;;;;4.32;2.55;;;;;;;;;;4177407;34;20122;-70
2021/07/28 10:23:50;;;;;;;3.95;2.28;;;;;;;;;;4166104;34;20125;-70
2021/07/28 10:26:17;;;;;;;2.45;2.05;;;;;;;;;;4177339;34;20202;-70
2021/07/28 10:28:46;;;;;;;3.12;2.47;;;;;;;;;;4166421;34;20111;-70
2021/07/28 10:31:17;;;;;;;3.45;2.50;;;;;;;;;;4177657;34;20126;-70
2021/07/28 10:33:53;;;;;;;2.95;2.28;;;;;;;;;;4166045;34;20549;-70
2021/07/28 10:36:40;;;;;;;2.53;2.20;;;;;;;;;;4166372;34;20128;-70
2021/07/28 10:39:06;;;;;;;7.90;2.03;;;;;;;;;;4182617;34;20201;-70
2021/07/28 10:41:39;;;;;;;5.28;2.87;;;;;;;;;;4177267;34;20462;-70
2021/07/28 10:44:09;;;;;;;3.60;2.67;;;;;;;;;;4191473;34;20117;-70
2021/07/28 10:47:05;;;;;;;2.60;2.28;;;;;;;;;;4179645;34;20129;-70
2021/07/28 10:49:36;;;;;;;2.53;1.92;;;;;;;;;;4165813;34;20190;-69
2021/07/28 10:52:08;;;;;;;3.17;1.85;;;;;;;;;;4179038;34;20455;-70
2021/07/28 10:54:52;;;;;;;6.97;2.30;;;;;;;;;;4179670;34;20114;-70
2021/07/28 10:57:34;;;;;;;2.78;2.20;;;;;;;;;;4191962;34;20141;-70
2021/07/28 11:00:01;;;;;;;2.55;2.20;;;;;;;;;;4192026;34;20221;-70
2021/07/28 11:02:55;;;;;;;2.67;1.98;;;;;;;;;;4179166;34;20129;-70
2021/07/28 11:05:22;;;;;;;2.75;2.10;;;;;;;;;;4191954;34;20153;-70
2021/07/28 11:10:30;;;;;;;3.37;2.05;;;;;;;;;;4192087;34;20220;-70
2021/07/28 11:12:57;;;;;;;5.30;2.58;;;;;;;;;;4192010;34;20238;-71
2021/07/28 11:15:23;;;;;;;2.50;2.05;;;;;;;;;;4179228;34;20476;-70
2021/07/28 11:17:53;;;;;;;2.17;2.00;;;;;;;;;;4179144;34;20522;-70
2021/07/28 11:20:28;;;;;;;2.70;2.03;;;;;;;;;;4167825;34;20432;-70
2021/07/28 11:23:28;;;;;;;2.78;2.20;;;;;;;;;;4192014;34;20122;-71
2021/07/28 11:25:56;;;;;;;4.32;2.53;;;;;;;;;;4178920;34;20118;-70
2021/07/28 11:28:23;;;;;;;2.17;1.70;;;;;;;;;;4179081;34;20125;-70
2021/07/28 11:30:59;;;;;;;2.28;2.00;;;;;;;;;;4191875;34;20275;-71
2021/07/28 11:33:27;;;;;;;4.97;2.22;;;;;;;;;;4167912;34;20212;-70
2021/07/28 11:35:53;;;;;;;4.37;2.70;;;;;;;;;;4167929;34;20204;-71
2021/07/28 11:38:32;;;;;;;6.85;2.53;;;;;;;;;;4178906;34;20515;-70
2021/07/28 11:41:00;;;;;;;2.75;2.55;;;;;;;;;;4167769;34;20118;-71
2021/07/28 11:43:30;;;;;;;1.98;1.83;;;;;;;;;;4167778;34;20093;-70
2021/07/28 11:46:00;;;;;;;7.15;2.58;;;;;;;;;;4167658;34;20091;-70
2021/07/28 11:48:27;;;;;;;6.07;2.42;;;;;;;;;;4179415;34;20101;-69
2021/07/28 11:50:54;;;;;;;9.63;2.50;;;;;;;;;;4167715;34;20262;-70
2021/07/28 11:53:27;;;;;;;3.90;2.50;;;;;;;;;;4191508;34;20208;-70
2021/07/28 11:55:53;;;;;;;3.25;1.60;;;;;;;;;;4178991;34;20189;-68
2021/07/28 11:58:20;;;;;;;8.38;2.30;;;;;;;;;;4178912;34;20201;-71
2021/07/28 12:00:48;;;;;;;5.65;2.47;;;;;;;;;;4178739;34;20118;-71
2021/07/28 12:03:30;;;;;;;3.60;2.30;;;;;;;;;;4178730;34;20204;-70
2021/07/28 12:06:08;;;;;;;2.10;1.92;;;;;;;;;;4178914;34;20106;-68
2021/07/28 12:08:37;;;;;;;4.85;2.60;;;;;;;;;;4179037;34;20100;-68
2021/07/28 12:11:12;;;;;;;2.78;2.40;;;;;;;;;;4178678;34;20140;-70
2021/07/28 12:13:47;;;;;;;3.83;2.28;;;;;;;;;;4178584;34;20121;-70
2021/07/28 12:16:14;;;;;;;5.65;2.45;;;;;;;;;;4167146;34;20186;-70
2021/07/28 12:18:49;;;;;;;4.60;2.33;;;;;;;;;;4178584;34;20142;-70
2021/07/28 12:21:15;;;;;;;5.45;2.55;;;;;;;;;;4178872;34;20122;-70
2021/07/28 12:23:54;;;;;;;2.53;2.20;;;;;;;;;;4178539;34;20270;-70
2021/07/28 12:26:48;;;;;;;5.40;2.42;;;;;;;;;;4167082;34;20140;-70
2021/07/28 12:29:37;;;;;;;6.93;2.90;;;;;;;;;;4191478;34;20126;-70
2021/07/28 12:32:16;;;;;;;3.45;2.28;;;;;;;;;;4178933;34;20102;-70
2021/07/28 12:34:42;;;;;;;3.78;2.30;;;;;;;;;;4178649;34;20121;-70
2021/07/28 12:37:20;;;;;;;4.15;2.40;;;;;;;;;;4191195;34;20139;-69
2021/07/28 12:39:46;;;;;;;3.03;2.00;;;;;;;;;;4178350;34;20155;-70
2021/07/28 12:42:12;;;;;;;3.87;2.33;;;;;;;;;;4178244;34;20125;-70
2021/07/28 12:44:38;;;;;;;3.67;2.08;;;;;;;;;;4178610;34;20588;-70
2021/07/28 12:47:04;;;;;;;2.53;2.20;;;;;;;;;;4166966;34;20529;-69
2021/07/28 12:49:30;;;;;;;6.05;2.33;;;;;;;;;;4191139;34;20125;-70
2021/07/28 12:51:56;;;;;;;5.05;2.37;;;;;;;;;;4166842;34;20110;-69
2021/07/28 12:54:22;;;;;;;2.87;2.50;;;;;;;;;;4178632;34;20160;-69
2021/07/28 12:56:48;;;;;;;5.32;2.53;;;;;;;;;;4167027;34;20141;-69
2021/07/28 12:59:14;;;;;;;3.65;2.62;;;;;;;;;;4167073;34;20553;-70
2021/07/28 13:01:40;;;;;;;2.45;1.87;;;;;;;;;;4178344;34;20118;-71
2021/07/28 13:04:07;;;;;;;3.37;2.47;;;;;;;;;;4178256;34;20126;-70
2021/07/28 13:06:33;;;;;;;2.67;2.40;;;;;;;;;;4177508;34;20519;-69
2021/07/28 13:08:59;;;;;;;3.40;2.22;;;;;;;;;;4191223;34;20261;-70
2021/07/28 13:11:25;;;;;;;7.05;2.70;;;;;;;;;;4190998;34;20278;-69
2021/07/28 13:13:51;;;;;;;2.85;2.00;;;;;;;;;;4190905;34;20302;-69
2021/07/28 13:16:17;;;;;;;2.12;1.83;;;;;;;;;;4190712;34;20221;-69
2021/07/28 13:18:43;;;;;;;3.33;1.87;;;;;;;;;;4178052;34;20575;-69
2021/07/28 13:21:09;;;;;;;3.53;2.40;;;;;;;;;;4178148;34;20129;-69
2021/07/28 13:23:35;;;;;;;2.85;2.03;;;;;;;;;;4177881;34;20290;-69
2021/07/28 13:26:01;;;;;;;4.85;2.80;;;;;;;;;;4178370;34;20220;-69
2021/07/28 13:28:27;;;;;;;1.65;1.45;;;;;;;;;;4178243;34;20227;-69
2021/07/28 13:30:53;;;;;;;3.37;2.28;;;;;;;;;;4178194;34;20125;-69
2021/07/28 13:33:19;;;;;;;5.78;2.58;;;;;;;;;;4167102;34;20098;-70
2021/07/28 13:35:45;;;;;;;4.57;2.70;;;;;;;;;;4177919;34;20513;-70
2021/07/28 13:38:11;;;;;;;2.60;1.98;;;;;;;;;;4166918;34;20518;-70
2021/07/28 13:40:37;;;;;;;2.97;2.30;;;;;;;;;;4190764;34;20221;-70
2021/07/28 13:43:03;;;;;;;3.03;2.40;;;;;;;;;;4190645;34;20103;-70
2021/07/28 13:45:29;;;;;;;4.65;2.10;;;;;;;;;;4177924;34;20133;-70
2021/07/28 13:47:55;;;;;;;5.85;2.75;;;;;;;;;;4166017;34;20122;-70
2021/07/28 13:50:21;;;;;;;3.75;2.47;;;;;;;;;;4177737;34;20530;-70
2021/07/28 13:52:47;;;;;;;3.85;2.50;;;;;;;;;;4177711;34;20126;-70
2021/07/28 13:55:13;;;;;;;5.12;2.20;;;;;;;;;;4177690;34;20133;-69
2021/07/28 13:57:41;;;;;;;7.22;3.03;;;;;;;;;;4190373;34;20214;-69
2021/07/28 14:00:07;;;;;;;2.67;2.30;;;;;;;;;;4190477;34;20106;-68
2021/07/28 14:02:34;;;;;;;2.75;1.90;;;;;;;;;;4177315;34;20539;-67
2021/07/28 14:05:06;;;;;;;3.00;2.40;;;;;;;;;;4178099;34;20229;-69
2021/07/28 14:07:41;;;;;;;2.80;2.10;;;;;;;;;;4167076;34;20098;-71
2021/07/28 14:10:07;;;;;;;4.10;2.33;;;;;;;;;;4177723;34;20134;-75
2021/07/28 14:12:33;;;;;;;4.57;2.15;;;;;;;;;;4190344;34;20109;-67
2021/07/28 14:15:02;;;;;;;9.18;3.10;;;;;;;;;;4177731;34;20118;-67
2021/07/28 14:17:28;;;;;;;3.20;2.22;;;;;;;;;;4190966;34;20125;-68
2021/07/28 14:19:54;;;;;;;4.22;2.30;;;;;;;;;;4192412;34;20153;-69
2021/07/28 14:22:20;;;;;;;3.12;2.10;;;;;;;;;;4192425;34;20525;-70
2021/07/28 14:25:00;;;;;;;3.17;2.47;;;;;;;;;;4192812;34;20110;-67
2021/07/28 14:27:29;;;;;;;3.00;2.30;;;;;;;;;;4179989;34;20113;-65
2021/07/28 14:29:55;;;;;;;3.50;2.10;;;;;;;;;;4192600;34;20178;-69
2021/07/28 14:32:21;;;;;;;4.22;2.80;;;;;;;;;;4179575;34;20230;-70
2021/07/28 14:34:47;;;;;;;5.18;2.78;;;;;;;;;;4179766;34;20542;-71
2021/07/28 14:37:15;;;;;;;5.97;2.05;;;;;;;;;;4179479;34;20121;-72
2021/07/28 14:39:42;;;;;;;2.85;2.40;;;;;;;;;;4179554;34;20108;-71
2021/07/28 14:42:08;;;;;;;5.75;2.37;;;;;;;;;;4179550;34;20142;-73
2021/07/28 14:44:34;;;;;;;7.12;2.03;;;;;;;;;;4179483;34;20204;-69
2021/07/28 14:47:00;;;;;;;3.22;2.35;;;;;;;;;;4179424;34;20133;-69
2021/07/28 14:49:26;;;;;;;2.67;1.90;;;;;;;;;;4168048;34;20113;-69
2021/07/28 14:51:55;;;;;;;3.28;2.00;;;;;;;;;;4167698;34;20326;-69
2021/07/28 14:54:25;;;;;;;3.10;2.10;;;;;;;;;;4180122;34;20105;-68
2021/07/28 14:56:51;;;;;;;5.15;2.30;;;;;;;;;;4168278;34;20137;-68